Time,TemperatureF,DewpointF,PressureIn,WindDirection,WindDirectionDegrees,WindSpeedMPH,WindSpeedGustMPH,Humidity,HourlyPrecipIn,Conditions,Clouds,dailyrainin,SolarRadiationWatts/m^2,SoftwareType,DateUTC
2014-11-27 00:03:00,41.4,38.1,29.78,NNW,344,0.0,0.0,88,0.00,BKN,,0.00,0.0,WeatherDisplay:10.37,2014-11-26 23:03:00,
2014-11-27 00:08:00,41.2,37.9,29.78,NNW,344,0.0,0.0,88,0.00,BKN,,0.00,0.0,WeatherDisplay:10.37,2014-11-26 23:08:00,
2014-11-27 00:13:00,40.9,37.3,29.78,WNW,298,3.5,3.5,87,0.00,BKN,,0.00,0.0,WeatherDisplay:10.37,2014-11-26 23:13:00,
2014-11-27 00:18:00,40.9,37.3,29.78,WNW,298,3.5,3.5,87,0.00,BKN,,0.00,0.0,WeatherDisplay:10.37,2014-11-26 23:18:00,
2014-11-27 00:23:00,41.4,37.5,29.78,WNW,288,0.0,0.0,86,0.00,BKN,,0.00,0.0,WeatherDisplay:10.37,2014-11-26 23:23:00,
2014-11-27 00:28:00,41.4,37.5,29.77,NW,304,2.3,2.3,86,0.00,BKN,,0.00,0.0,WeatherDisplay:10.37,2014-11-26 23:28:00,
2014-11-27 00:33:00,41.4,37.5,29.77,WNW,294,3.5,3.5,86,0.00,BKN,,0.00,0.0,WeatherDisplay:10.37,2014-11-26 23:33:00,
2014-11-27 00:38:00,41.5,37.6,29.77,WNW,294,1.2,0.0,86,0.00,BKN,,0.00,0.0,WeatherDisplay:10.37,2014-11-26 23:38:00,
2014-11-27 00:43:00,41.5,37.6,29.77,WNW,294,0.0,0.0,86,0.00,BKN,,0.00,0.0,WeatherDisplay:10.37,2014-11-26 23:43:00,
2014-11-27 00:48:00,41.5,37.3,29.77,WNW,294,0.0,0.0,85,0.00,BKN,,0.00,0.0,WeatherDisplay:10.37,2014-11-26 23:48:00,
2014-11-27 00:53:00,41.4,37.5,29.77,WNW,294,0.0,0.0,86,0.00,BKN,,0.00,0.0,WeatherDisplay:10.37,2014-11-26 23:53:00,
2014-11-27 00:58:00,41.4,37.5,29.77,WNW,294,2.3,2.3,86,0.00,BKN,,0.00,0.0,WeatherDisplay:10.37,2014-11-26 23:58:00,
2014-11-27 01:03:00,41.5,37.6,29.76,NW,313,3.5,3.5,86,0.00,BKN,,0.00,0.0,WeatherDisplay:10.37,2014-11-27 00:03:00,
2014-11-27 01:08:00,41.6,38.0,29.76,NW,313,0.0,0.0,87,0.00,BKN,,0.00,0.0,WeatherDisplay:10.37,2014-11-27 00:08:00,
2014-11-27 01:14:00,41.5,37.9,29.76,NW,313,2.0,2.0,87,0.00,BKN,,0.00,0.0,WeatherDisplay:10.37,2014-11-27 00:14:00,
2014-11-27 01:19:00,41.2,37.3,29.76,NW,313,2.3,2.3,86,0.00,BKN,,0.00,0.0,WeatherDisplay:10.37,2014-11-27 00:19:00,
2014-11-27 01:24:00,41.0,37.1,29.76,NW,313,3.5,3.5,86,0.00,BKN,,0.00,0.0,WeatherDisplay:10.37,2014-11-27 00:24:00,
2014-11-27 01:29:00,40.9,37.0,29.76,NW,313,3.5,3.5,86,0.00,BKN,,0.00,0.0,WeatherDisplay:10.37,2014-11-27 00:29:00,
2014-11-27 01:34:00,41.0,37.1,29.76,NW,313,0.0,0.0,86,0.00,BKN,,0.00,0.0,WeatherDisplay:10.37,2014-11-27 00:34:00,
2014-11-27 01:39:00,40.8,36.9,29.75,NW,313,0.0,0.0,86,0.00,BKN,,0.00,0.0,WeatherDisplay:10.37,2014-11-27 00:39:00,
2014-11-27 01:44:00,41.0,37.1,29.75,NW,313,0.0,0.0,86,0.00,BKN,,0.00,0.0,WeatherDisplay:10.37,2014-11-27 00:44:00,
2014-11-27 01:49:00,41.0,37.1,29.75,NW,313,0.0,0.0,86,0.00,BKN,,0.00,0.0,WeatherDisplay:10.37,2014-11-27 00:49:00,
2014-11-27 01:54:00,40.7,36.8,29.75,NW,317,3.5,3.5,86,0.00,BKN,,0.00,0.0,WeatherDisplay:10.37,2014-11-27 00:54:00,
2014-11-27 01:59:00,40.7,37.1,29.75,NW,317,1.2,0.0,87,0.00,BKN,,0.00,0.0,WeatherDisplay:10.37,2014-11-27 00:59:00,
2014-11-27 02:04:00,40.7,36.8,29.75,NW,317,0.0,0.0,86,0.00,BKN,,0.00,0.0,WeatherDisplay:10.37,2014-11-27 01:04:00,
2014-11-27 02:09:00,40.6,36.7,29.75,NW,317,2.3,2.3,86,0.00,BKN,,0.00,0.0,WeatherDisplay:10.37,2014-11-27 01:09:00,
2014-11-27 02:14:00,40.7,36.8,29.75,NW,317,0.0,0.0,86,0.00,BKN,,0.00,0.0,WeatherDisplay:10.37,2014-11-27 01:14:00,
2014-11-27 02:19:00,40.7,36.8,29.75,NW,317,1.2,1.2,86,0.00,BKN,,0.00,0.0,WeatherDisplay:10.37,2014-11-27 01:19:00,
2014-11-27 02:24:00,40.6,36.7,29.75,NW,313,2.3,2.3,86,0.00,BKN,,0.00,0.0,WeatherDisplay:10.37,2014-11-27 01:24:00,
2014-11-27 02:29:00,40.7,36.8,29.75,NW,313,0.0,0.0,86,0.00,BKN,,0.00,0.0,WeatherDisplay:10.37,2014-11-27 01:29:00,
2014-11-27 02:34:00,40.7,36.8,29.75,West,272,3.5,3.5,86,0.00,BKN,,0.00,0.0,WeatherDisplay:10.37,2014-11-27 01:34:00,
2014-11-27 02:39:00,41.2,38.5,29.75,West,268,2.3,2.3,90,0.00,BKN,,0.00,0.0,WeatherDisplay:10.37,2014-11-27 01:39:00,
2014-11-27 02:44:00,41.4,36.9,29.75,West,268,0.0,0.0,84,0.00,BKN,,0.00,0.0,WeatherDisplay:10.37,2014-11-27 01:44:00,
2014-11-27 02:49:00,41.2,36.7,29.74,West,268,3.5,3.5,84,0.00,BKN,,0.00,0.0,WeatherDisplay:10.37,2014-11-27 01:49:00,
2014-11-27 02:54:00,41.2,36.7,29.74,West,277,3.5,3.5,84,0.00,BKN,,0.00,0.0,WeatherDisplay:10.37,2014-11-27 01:54:00,
2014-11-27 02:59:00,41.5,37.0,29.74,West,275,3.5,3.5,84,0.00,BKN,,0.00,0.0,WeatherDisplay:10.37,2014-11-27 01:59:00,
2014-11-27 03:04:00,41.7,36.9,29.74,West,263,0.0,0.0,83,0.00,BKN,,0.00,0.0,WeatherDisplay:10.37,2014-11-27 02:04:00,
2014-11-27 03:09:00,41.7,36.9,29.74,West,263,1.2,1.2,83,0.00,BKN,,0.00,0.0,WeatherDisplay:10.37,2014-11-27 02:09:00,
2014-11-27 03:14:00,41.5,36.7,29.74,West,263,0.0,0.0,83,0.00,BKN,,0.00,0.0,WeatherDisplay:10.37,2014-11-27 02:14:00,
2014-11-27 03:19:00,41.1,37.8,29.74,West,263,0.0,0.0,88,0.00,BKN,,0.00,0.0,WeatherDisplay:10.37,2014-11-27 02:19:00,
2014-11-27 03:24:00,40.8,36.6,29.74,West,263,2.3,2.3,85,0.00,BKN,,0.00,0.0,WeatherDisplay:10.37,2014-11-27 02:24:00,
2014-11-27 03:29:00,40.7,36.5,29.74,West,263,1.2,1.2,85,0.00,BKN,,0.00,0.0,WeatherDisplay:10.37,2014-11-27 02:29:00,
2014-11-27 03:34:00,40.8,36.6,29.74,WNW,288,3.5,3.5,85,0.00,BKN,,0.00,0.0,WeatherDisplay:10.37,2014-11-27 02:34:00,
2014-11-27 03:39:00,40.9,36.7,29.74,WNW,288,2.3,2.3,85,0.00,BKN,,0.00,0.0,WeatherDisplay:10.37,2014-11-27 02:39:00,
2014-11-27 03:44:00,40.8,36.6,29.74,WNW,288,0.0,0.0,85,0.00,BKN,,0.00,0.0,WeatherDisplay:10.37,2014-11-27 02:44:00,
2014-11-27 03:49:00,40.7,36.2,29.73,WNW,288,0.0,0.0,84,0.00,BKN,,0.00,0.0,WeatherDisplay:10.37,2014-11-27 02:49:00,
2014-11-27 03:54:00,40.5,36.0,29.73,West,275,3.5,3.5,84,0.00,BKN,,0.00,0.0,WeatherDisplay:10.37,2014-11-27 02:54:00,
2014-11-27 03:59:00,40.7,36.2,29.73,SW,232,2.3,2.3,84,0.00,BKN,,0.00,0.0,WeatherDisplay:10.37,2014-11-27 02:59:00,
2014-11-27 04:04:00,40.8,36.0,29.73,SW,236,3.5,3.5,83,0.00,BKN,,0.00,0.0,WeatherDisplay:10.37,2014-11-27 03:04:00,
2014-11-27 04:09:00,41.1,36.0,29.73,West,269,5.8,5.8,82,0.00,BKN,,0.00,0.0,WeatherDisplay:10.37,2014-11-27 03:09:00,
2014-11-27 04:14:00,41.7,36.3,29.73,West,269,5.0,5.0,81,0.00,BKN,,0.00,0.0,WeatherDisplay:10.37,2014-11-27 03:14:00,
2014-11-27 04:19:00,42.6,36.5,29.73,SW,230,6.9,6.9,79,0.00,BKN,,0.00,0.0,WeatherDisplay:10.37,2014-11-27 03:19:00,
2014-11-27 04:24:00,43.2,36.5,29.72,West,275,4.6,4.6,77,0.00,BKN,,0.00,0.0,WeatherDisplay:10.37,2014-11-27 03:24:00,
2014-11-27 04:29:00,43.5,36.4,29.73,WSW,241,4.6,4.6,76,0.00,BKN,,0.00,0.0,WeatherDisplay:10.37,2014-11-27 03:29:00,
2014-11-27 04:34:00,43.7,36.6,29.72,West,263,6.0,6.0,76,0.00,BKN,,0.00,0.0,WeatherDisplay:10.37,2014-11-27 03:34:00,
2014-11-27 04:39:00,43.7,36.6,29.72,WNW,292,4.6,4.6,76,0.00,BKN,,0.00,0.0,WeatherDisplay:10.37,2014-11-27 03:39:00,
2014-11-27 04:44:00,43.8,36.7,29.72,SW,221,3.5,3.5,76,0.00,BKN,,0.00,0.0,WeatherDisplay:10.37,2014-11-27 03:44:00,
2014-11-27 04:49:00,43.8,36.7,29.72,SW,216,2.3,2.3,76,0.00,BKN,,0.00,0.0,WeatherDisplay:10.37,2014-11-27 03:49:00,
2014-11-27 04:54:00,43.8,36.7,29.72,SW,216,1.2,0.0,76,0.00,BKN,,0.00,0.0,WeatherDisplay:10.37,2014-11-27 03:54:00,
2014-11-27 04:59:00,43.7,37.3,29.72,SW,215,0.0,0.0,78,0.00,BKN,,0.00,0.0,WeatherDisplay:10.37,2014-11-27 03:59:00,
2014-11-27 05:04:00,43.3,37.2,29.71,SW,215,0.0,0.0,79,0.00,BKN,,0.00,0.0,WeatherDisplay:10.37,2014-11-27 04:04:00,
2014-11-27 05:09:00,43.0,37.6,29.71,SW,215,0.0,0.0,81,0.00,BKN,,0.00,0.0,WeatherDisplay:10.37,2014-11-27 04:09:00,
2014-11-27 05:14:00,42.7,37.6,29.71,SW,215,0.0,0.0,82,0.00,BKN,,0.00,0.0,WeatherDisplay:10.37,2014-11-27 04:14:00,
2014-11-27 05:19:00,42.4,37.6,29.71,SW,215,0.0,0.0,83,0.00,BKN,,0.00,0.0,WeatherDisplay:10.37,2014-11-27 04:19:00,
2014-11-27 05:24:00,42.2,37.7,29.71,SW,215,0.0,0.0,84,0.00,BKN,,0.00,0.0,WeatherDisplay:10.37,2014-11-27 04:24:00,
2014-11-27 05:29:00,42.1,37.6,29.71,WSW,251,2.3,2.3,84,0.00,BKN,,0.00,0.0,WeatherDisplay:10.37,2014-11-27 04:29:00,
2014-11-27 05:34:00,42.0,37.5,29.70,WSW,258,0.0,0.0,84,0.00,BKN,,0.00,0.0,WeatherDisplay:10.37,2014-11-27 04:34:00,
2014-11-27 05:39:00,42.0,37.5,29.70,WSW,258,2.3,2.3,84,0.00,BKN,,0.00,0.0,WeatherDisplay:10.37,2014-11-27 04:39:00,
2014-11-27 05:44:00,42.0,37.5,29.70,WNW,286,1.2,1.2,84,0.00,BKN,,0.00,0.0,WeatherDisplay:10.37,2014-11-27 04:44:00,
2014-11-27 05:49:00,41.9,37.4,29.70,NNW,345,1.2,1.2,84,0.00,BKN,,0.00,0.0,WeatherDisplay:10.37,2014-11-27 04:49:00,
2014-11-27 05:54:00,41.9,37.4,29.70,NNW,345,1.2,1.2,84,0.00,BKN,,0.00,0.0,WeatherDisplay:10.37,2014-11-27 04:54:00,
2014-11-27 05:59:00,41.8,37.3,29.70,NNW,345,1.2,1.2,84,0.00,BKN,,0.00,0.0,WeatherDisplay:10.37,2014-11-27 04:59:00,
2014-11-27 06:04:00,41.8,37.0,29.70,NNW,345,0.0,0.0,83,0.00,BKN,,0.00,0.0,WeatherDisplay:10.37,2014-11-27 05:04:00,
2014-11-27 06:09:00,41.9,37.1,29.70,NNW,345,1.2,1.2,83,0.00,BKN,,0.00,0.0,WeatherDisplay:10.37,2014-11-27 05:09:00,
2014-11-27 06:14:00,41.9,37.1,29.70,NNW,341,2.3,2.3,83,0.00,BKN,,0.00,0.0,WeatherDisplay:10.37,2014-11-27 05:14:00,
2014-11-27 06:19:00,42.1,37.0,29.70,NNW,341,2.3,2.3,82,0.00,BKN,,0.00,0.0,WeatherDisplay:10.37,2014-11-27 05:19:00,
2014-11-27 06:24:00,42.2,37.4,29.70,NNW,330,0.0,0.0,83,0.00,BKN,,0.00,0.0,WeatherDisplay:10.37,2014-11-27 05:24:00,
2014-11-27 06:29:00,42.1,37.0,29.70,West,265,2.3,2.3,82,0.00,BKN,,0.00,0.0,WeatherDisplay:10.37,2014-11-27 05:29:00,
2014-11-27 06:34:00,42.7,36.3,29.70,WSW,248,4.6,4.6,78,0.00,BKN,,0.00,0.0,WeatherDisplay:10.37,2014-11-27 05:34:00,
2014-11-27 06:39:00,43.4,36.7,29.70,SW,221,3.5,3.5,77,0.00,BKN,,0.00,0.0,WeatherDisplay:10.37,2014-11-27 05:39:00,
2014-11-27 06:44:00,43.9,36.5,29.70,WSW,240,9.2,9.2,75,0.00,BKN,,0.00,0.0,WeatherDisplay:10.37,2014-11-27 05:44:00,
2014-11-27 06:49:00,44.3,36.5,29.70,SW,233,8.1,8.1,74,0.00,BKN,,0.00,0.0,WeatherDisplay:10.37,2014-11-27 05:49:00,
2014-11-27 06:54:00,44.4,36.6,29.70,WSW,257,10.4,10.4,74,0.00,BKN,,0.00,0.0,WeatherDisplay:10.37,2014-11-27 05:54:00,
2014-11-27 06:59:00,44.4,36.6,29.70,WSW,249,9.0,9.0,74,0.00,BKN,,0.00,0.0,WeatherDisplay:10.37,2014-11-27 05:59:00,
2014-11-27 07:04:00,44.4,36.3,29.70,West,275,9.0,9.0,73,0.00,BKN,,0.00,0.0,WeatherDisplay:10.37,2014-11-27 06:04:00,
2014-11-27 07:09:00,44.4,36.6,29.70,WSW,248,10.4,10.4,74,0.00,BKN,,0.00,0.0,WeatherDisplay:10.37,2014-11-27 06:09:00,
2014-11-27 07:14:00,44.4,36.3,29.70,SW,225,8.0,8.0,73,0.00,BKN,,0.00,0.0,WeatherDisplay:10.37,2014-11-27 06:14:00,
2014-11-27 07:19:00,44.4,36.3,29.70,West,259,10.4,10.4,73,0.00,BKN,,0.00,0.0,WeatherDisplay:10.37,2014-11-27 06:19:00,
2014-11-27 07:24:00,44.4,36.3,29.70,SW,235,9.2,9.2,73,0.00,BKN,,0.00,0.0,WeatherDisplay:10.37,2014-11-27 06:24:00,
2014-11-27 07:29:00,44.3,36.2,29.70,WSW,243,7.0,7.0,73,0.00,BKN,,0.00,0.0,WeatherDisplay:10.37,2014-11-27 06:29:00,
2014-11-27 07:34:00,44.4,36.3,29.70,SW,236,11.5,11.5,73,0.00,BKN,,0.00,0.0,WeatherDisplay:10.37,2014-11-27 06:34:00,
2014-11-27 07:39:00,44.5,36.4,29.70,SW,227,9.2,9.2,73,0.00,BKN,,0.00,0.0,WeatherDisplay:10.37,2014-11-27 06:39:00,
2014-11-27 07:44:00,44.5,36.4,29.70,SW,235,10.4,10.4,73,0.00,BKN,,0.00,0.0,WeatherDisplay:10.37,2014-11-27 06:44:00,
2014-11-27 07:49:00,44.4,36.3,29.70,WSW,244,8.1,8.1,73,0.00,BKN,,0.00,0.0,WeatherDisplay:10.37,2014-11-27 06:49:00,
2014-11-27 07:54:00,44.4,36.3,29.70,WSW,241,10.4,10.4,73,0.00,BKN,,0.00,0.0,WeatherDisplay:10.37,2014-11-27 06:54:00,